Airfield :
LOGIN :

Register | Disclaimer

   EN    FR    IT 

 










Legend :    VFR   Marginal VFR   IFR   Intensive IFR   Very Intensive IFR
Visi :
Ceiling :
>= 8 km
>= 3000ft
5 to 8 km
1000 to 3000 ft
1500m to 5 km
500 to 1000 ft
800 to 1500m
200 to 500 ft
< 800m
< 200 ft
Symbols :   Thunderstorms  Fog  Heavy snow  Heavy precipitations  Wind > 20 kt
SIGMETs :     Misc.  Thunderstorms  Icing  Turbulence  Mountain Waves  Volcanic Ashes






- Airport Elevation : 42 ft
- IATA code : KGD


UMKK - Khrabrava - Kaliningrad

CURRENT METAR :
  • 301630Z 04005MPS CAVOK 25/23 Q1014 R06/95D NOSIG RMK QFE759/1012

EXPIRED METARs :
  • 301600Z 03005MPS 9999 FEW030 25/23 Q1014 R06/CLRD95 NOSIG RMK QFE759/1012
  • 301530Z 04005MPS 9999 FEW030 26/23 Q1014 R06/CLRD95 NOSIG RMK QFE759/1013
  • 301500Z 04005MPS 9999 FEW030 25/22 Q1014 R06/CLRD95 NOSIG RMK QFE760/1013
  • 301430Z 03005MPS 9999 FEW030 26/21 Q1015 R06/95D NOSIG RMK QFE760/1013
  • 301400Z 03004MPS 9999 FEW030 26/21 Q1015 R06/CLRD95 NOSIG RMK QFE760/1013

TAF TAF UMKK
Valid from the 30 at 15:00 until the 01 at 15:00 UTC


301356Z 3015/0115 07003G10MPS 9999 SCT016 TX32/0112Z TN20/0102Z
TEMPO 3018/0105 -TSRAGR BKN020CB
BECMG 3019/3021 14006G11MPS



MET'MAP, your aeronautical weather chart ! - Copyright ORBIFLY December 2007 - Disclaimer

ORBIFLY MET'MAP TEAM :

Programming & Development : Alexandra Zaïnal
Original concept : Baudouin d'Aumeries
Technical & hardware support : Manuel Goepfert
Assistance : Marc-Olivier Méhu




SOURCES & CREDITS :

   NOAA